地図

経路データ

SID SEASON NUMBER BASIN SUBBASIN NAME ISO_TIME NATURE LAT LON WMO_WIND WMO_PRES WMO_AGENCY TRACK_TYPE DIST2LAND LANDFALL IFLAG USA_AGENCY USA_ATCF_ID USA_LAT USA_LON USA_RECORD USA_STATUS USA_WIND USA_PRES USA_SSHS USA_R34_NE USA_R34_SE USA_R34_SW USA_R34_NW USA_R50_NE USA_R50_SE USA_R50_SW USA_R50_NW USA_R64_NE USA_R64_SE USA_R64_SW USA_R64_NW USA_POCI USA_ROCI USA_RMW USA_EYE TOKYO_LAT TOKYO_LON TOKYO_GRADE TOKYO_WIND TOKYO_PRES TOKYO_R50_DIR TOKYO_R50_LONG TOKYO_R50_SHORT TOKYO_R30_DIR TOKYO_R30_LONG TOKYO_R30_SHORT TOKYO_LAND CMA_LAT CMA_LON CMA_CAT CMA_WIND CMA_PRES HKO_LAT HKO_LON HKO_CAT HKO_WIND HKO_PRES NEWDELHI_LAT NEWDELHI_LON NEWDELHI_GRADE NEWDELHI_WIND NEWDELHI_PRES NEWDELHI_CI NEWDELHI_DP NEWDELHI_POCI REUNION_LAT REUNION_LON REUNION_TYPE REUNION_WIND REUNION_PRES REUNION_TNUM REUNION_CI REUNION_RMW REUNION_R34_NE REUNION_R34_SE REUNION_R34_SW REUNION_R34_NW REUNION_R50_NE REUNION_R50_SE REUNION_R50_SW REUNION_R50_NW REUNION_R64_NE REUNION_R64_SE REUNION_R64_SW REUNION_R64_NW BOM_LAT BOM_LON BOM_TYPE BOM_WIND BOM_PRES BOM_TNUM BOM_CI BOM_RMW BOM_R34_NE BOM_R34_SE BOM_R34_SW BOM_R34_NW BOM_R50_NE BOM_R50_SE BOM_R50_SW BOM_R50_NW BOM_R64_NE BOM_R64_SE BOM_R64_SW BOM_R64_NW BOM_ROCI BOM_POCI BOM_EYE BOM_POS_METHOD BOM_PRES_METHOD NADI_LAT NADI_LON NADI_CAT NADI_WIND NADI_PRES WELLINGTON_LAT WELLINGTON_LON WELLINGTON_WIND WELLINGTON_PRES DS824_LAT DS824_LON DS824_STAGE DS824_WIND DS824_PRES TD9636_LAT TD9636_LON TD9636_STAGE TD9636_WIND TD9636_PRES TD9635_LAT TD9635_LON TD9635_WIND TD9635_PRES TD9635_ROCI NEUMANN_LAT NEUMANN_LON NEUMANN_CLASS NEUMANN_WIND NEUMANN_PRES MLC_LAT MLC_LON MLC_CLASS MLC_WIND MLC_PRES USA_GUST BOM_GUST BOM_GUST_PER REUNION_GUST REUNION_GUST_PER USA_SEAHGT USA_SEARAD_NE USA_SEARAD_SE USA_SEARAD_SW USA_SEARAD_NW STORM_SPEED STORM_DIR
1856272N11336 1856 14 NA NA NOT_NAMED 1856-09-27 12:00:00 TS 11.4000 -23.6000 main 748 748 _____________O -1 11.4000 -23.6000 TD 30 20 273
1856272N11336 1856 14 NA NA NOT_NAMED 1856-09-27 15:00:00 TS 11.4532 -24.5999 main 848 848 _____________P -1 11.4532 -24.5999 TD 30 20 273
1856272N11336 1856 14 NA NA NOT_NAMED 1856-09-27 18:00:00 TS 11.5000 -25.6000 main 947 947 _____________O -1 11.5000 -25.6000 TD 30 20 273
1856272N11336 1856 14 NA NA NOT_NAMED 1856-09-27 21:00:00 TS 11.5422 -26.6001 main 1049 1049 _____________P -1 11.5422 -26.6001 TD 30 20 273
1856272N11336 1856 14 NA NA NOT_NAMED 1856-09-28 00:00:00 TS 11.6000 -27.6000 main 1147 1147 _____________O -1 11.6000 -27.6000 TD 30 20 275
1856272N11336 1856 14 NA NA NOT_NAMED 1856-09-28 03:00:00 TS 11.7001 -28.6448 main 1248 1248 _____________P -1 11.7001 -28.6448 TD 30 20 276
1856272N11336 1856 14 NA NA NOT_NAMED 1856-09-28 06:00:00 TS 11.8000 -29.6000 main 1349 1349 _____________O -1 11.8000 -29.6000 TD 30 17 275
1856272N11336 1856 14 NA NA NOT_NAMED 1856-09-28 09:00:00 TS 11.8494 -30.3451 main 1423 1423 _____________P -1 11.8494 -30.3451 TD 30 14 274
1856272N11336 1856 14 NA NA NOT_NAMED 1856-09-28 12:00:00 TS 11.9000 -31.0000 main 1494 1494 _____________O -1 11.9000 -31.0000 TD 30 14 276
1856272N11336 1856 14 NA NA NOT_NAMED 1856-09-28 15:00:00 TS 11.9999 -31.7149 main 1566 1566 _____________P -1 11.9999 -31.7149 TD 30 14 278
1856272N11336 1856 14 NA NA NOT_NAMED 1856-09-28 18:00:00 TS 12.1000 -32.4000 main 1638 1638 _____________O -1 12.1000 -32.4000 TD 30 13 277
1856272N11336 1856 14 NA NA NOT_NAMED 1856-09-28 21:00:00 TS 12.1499 -33.0301 main 1702 1702 _____________P -1 12.1499 -33.0301 TD 32 12 275
1856272N11336 1856 14 NA NA NOT_NAMED 1856-09-29 00:00:00 TS 12.2000 -33.6000 main 1764 1764 _____________O -1 12.2000 -33.6000 TS 35 11 278
1856272N11336 1856 14 NA NA NOT_NAMED 1856-09-29 03:00:00 TS 12.2999 -34.1224 main 1815 1808 _____________P -1 12.2999 -34.1224 TS 37 10 282
1856272N11336 1856 14 NA NA NOT_NAMED 1856-09-29 06:00:00 TS 12.4000 -34.6000 main 1808 1794 _____________O -1 12.4000 -34.6000 TS 40 9 279
1856272N11336 1856 14 NA NA NOT_NAMED 1856-09-29 09:00:00 TS 12.4424 -35.0651 main 1791 1789 _____________P -1 12.4424 -35.0651 TS 40 9 276
1856272N11336 1856 14 NA NA NOT_NAMED 1856-09-29 12:00:00 TS 12.5000 -35.5000 main 1789 1783 _____________O -1 12.5000 -35.5000 TS 40 8 284
1856272N11336 1856 14 NA NA NOT_NAMED 1856-09-29 15:00:00 TS 12.6424 -35.9074 main 1789 1789 _____________P -1 12.6424 -35.9074 TS 40 8 291
1856272N11336 1856 14 NA NA NOT_NAMED 1856-09-29 18:00:00 TS 12.8000 -36.3000 main 1801 1796 _____________O -1 12.8000 -36.3000 TS 40 8 288
1856272N11336 1856 14 NA NA NOT_NAMED 1856-09-29 21:00:00 TS 12.9000 -36.7076 main 1803 1799 _____________P -1 12.9000 -36.7076 TS 40 8 284
1856272N11336 1856 14 NA NA NOT_NAMED 1856-09-30 00:00:00 TS 13.0000 -37.1000 main 1806 1804 _____________O -1 13.0000 -37.1000 TS 40 8 289
1856272N11336 1856 14 NA NA NOT_NAMED 1856-09-30 03:00:00 TS 13.1499 -37.4500 main 1812 1793 _____________P -1 13.1499 -37.4500 TS 40 7 294
1856272N11336 1856 14 NA NA NOT_NAMED 1856-09-30 06:00:00 TS 13.3000 -37.8000 main 1793 1763 _____________O -1 13.3000 -37.8000 TS 40 8 289
1856272N11336 1856 14 NA NA NOT_NAMED 1856-09-30 09:00:00 TS 13.4000 -38.1926 main 1763 1734 _____________P -1 13.4000 -38.1926 TS 40 8 284
1856272N11336 1856 14 NA NA NOT_NAMED 1856-09-30 12:00:00 TS 13.5000 -38.6000 main 1734 1714 _____________O -1 13.5000 -38.6000 TS 40 8 287
1856272N11336 1856 14 NA NA NOT_NAMED 1856-09-30 15:00:00 TS 13.6271 -38.9478 main 1714 1684 _____________P -1 13.6271 -38.9478 TS 40 8 291
1856272N11336 1856 14 NA NA NOT_NAMED 1856-09-30 18:00:00 TS 13.8000 -39.4000 main 1684 1640 _____________O -1 13.8000 -39.4000 TS 40 12 290
1856272N11336 1856 14 NA NA NOT_NAMED 1856-09-30 21:00:00 TS 14.0581 -40.1496 main 1647 1598 _____________P -1 14.0581 -40.1496 TS 40 15 289
1856272N11336 1856 14 NA NA NOT_NAMED 1856-10-01 00:00:00 TS 14.3000 -40.9000 main 1598 1575 _____________O -1 14.3000 -40.9000 TS 40 12 287
1856272N11336 1856 14 NA NA NOT_NAMED 1856-10-01 03:00:00 TS 14.4146 -41.3528 main 1567 1553 _____________P -1 14.4146 -41.3528 TS 40 8 284
1856272N11336 1856 14 NA NA NOT_NAMED 1856-10-01 06:00:00 TS 14.5000 -41.7000 main 1553 1532 _____________O -1 14.5000 -41.7000 TS 40 7 287
1856272N11336 1856 14 NA NA NOT_NAMED 1856-10-01 09:00:00 TS 14.6328 -42.0822 main 1532 1519 _____________P -1 14.6328 -42.0822 TS 40 8 291
1856272N11336 1856 14 NA NA NOT_NAMED 1856-10-01 12:00:00 TS 14.8000 -42.5000 main 1520 _____________O -1 14.8000 -42.5000 TS 40 9 292

IBTrACS Databaseについて

本データベースは、米国NOAAが公開する1842年以降の世界の熱帯低気圧のベストトラックデータアーカイブInternational Best Track Archive for Climate Stewardship (IBTrACS)を、ウェブで閲覧しやすい形式に変換したものです。

最終更新日:2021-11-26